Detailed System and Site Information

System Data Health
Measure Timestamp Ago Health
Web Server Live 16:05:22, 29th May 2017 0 s health
Last live-data upload from local system (nw3) 16:05:19, 29th May 2017 3 s health
Last upload of secondary data 16:00:24, 29th May 2017 5 mins health
Latest Webcam upload 16:05:20, 29th May 2017 2 s health
Last upload of 24hr data log 16:04:08, 29th May 2017 74 s health
Last full data process 16:05:07, 29th May 2017 15 s health
Last data downtime (>15 mins) 13:16:03, 22nd January 2017 127 days
Local System and Site Information
Measure Value
WD Version & Build # 10.37R - 40
WD Start Time 08:14 29/05/17
WD Data Count 9701
WD Memory Use 90,412 K
--- ---
Windows Uptime 0 Days 7 Hours 47 Minutes 8 Seconds
Free System Memory 2878 MB (Max: 4GB)
--- ---
Station Altitude 57 m (187 ft)
Station Latitude 51.556
Station Longitude -0.154
Machine Room Conditions
Measure Value
Temperature 24.1 °C
Temperature Trend +0.2 °C /hr
Relative Humidity 45%
Dew Point 11.4 °C
--- ---
Tmin Today 20.1 °C at 06:58
Tmax Today 24.2 °C at 15:22
Hmin Today 43% at 00:00
Hmax Today 49% at 08:01
Tmin Yesterday 20.9 °C at 05:56
Tmax Yesterday 26.9 °C at 15:23

Site owner and administrator: Ben Lee-Rodgers (2010 - present)

Last 10hrs Temp/Hum for Secondary Sensor and Indoors

Extra Sensors/Indoor

Other

Raw METAR from EGLL (Heathrow)

EGLL 291450Z AUTO VRB05KT 9999 BKN015 20/17 Q1011 NOSIG
Decode Instructions
Source

WD Screenshot

not available